createdAt,value
2018-07-23T00:00:44.134Z,25.87
2018-07-23T00:03:10.787Z,25.87
2018-07-23T00:05:37.421Z,25.86
2018-07-23T00:08:04.059Z,25.79
2018-07-23T00:10:30.734Z,25.82
2018-07-23T00:12:57.482Z,25.82
2018-07-23T00:15:24.106Z,25.81
2018-07-23T00:17:50.740Z,25.82
2018-07-23T00:20:17.419Z,25.83
2018-07-23T00:22:44.097Z,25.85
2018-07-23T00:25:10.747Z,25.83
2018-07-23T00:27:37.372Z,25.77
2018-07-23T00:30:04.036Z,25.75
2018-07-23T00:32:30.668Z,25.79
2018-07-23T00:34:57.312Z,25.79
2018-07-23T00:37:24.033Z,25.79
2018-07-23T00:39:50.628Z,25.80
2018-07-23T00:42:17.272Z,25.80
2018-07-23T00:44:43.922Z,25.79
2018-07-23T00:47:10.552Z,25.71
2018-07-23T00:49:40.556Z,25.72
2018-07-23T00:52:07.220Z,25.74
2018-07-23T00:54:33.863Z,25.77
2018-07-23T00:57:00.511Z,25.76
2018-07-23T00:59:27.152Z,25.76
2018-07-23T01:01:53.798Z,25.75
2018-07-23T01:04:20.499Z,25.74
2018-07-23T01:06:47.110Z,25.71
2018-07-23T01:09:13.789Z,25.70
2018-07-23T01:11:40.454Z,25.70
2018-07-23T01:14:07.098Z,25.69
2018-07-23T01:16:33.776Z,25.70
2018-07-23T01:19:01.795Z,25.67
2018-07-23T01:21:27.041Z,25.69
2018-07-23T01:23:53.730Z,25.68
2018-07-23T01:26:20.371Z,25.66
2018-07-23T01:28:47.009Z,25.60
2018-07-23T01:31:13.728Z,25.63
2018-07-23T01:33:40.367Z,25.62
2018-07-23T01:36:07.034Z,25.65
2018-07-23T01:38:33.674Z,25.65
2018-07-23T01:41:00.318Z,25.64
2018-07-23T01:43:26.986Z,25.64
2018-07-23T01:45:53.663Z,25.64
2018-07-23T01:48:20.364Z,25.56
2018-07-23T01:50:47.034Z,25.57
2018-07-23T01:53:13.703Z,25.58
2018-07-23T01:55:40.335Z,25.59
2018-07-23T01:58:06.975Z,25.60
2018-07-23T02:00:33.633Z,25.59
2018-07-23T02:03:00.275Z,25.59
2018-07-23T02:05:26.939Z,25.59
2018-07-23T02:07:53.591Z,25.51
2018-07-23T02:10:20.212Z,25.49
2018-07-23T02:12:48.280Z,25.53
2018-07-23T02:15:13.585Z,25.54
2018-07-23T02:17:40.248Z,25.54
2018-07-23T02:20:06.843Z,25.52
2018-07-23T02:22:33.526Z,25.55
2018-07-23T02:25:00.167Z,25.55
2018-07-23T02:27:26.801Z,25.58
2018-07-23T02:29:53.443Z,25.46
2018-07-23T02:32:20.133Z,25.44
2018-07-23T02:34:46.761Z,25.47
2018-07-23T02:37:13.441Z,25.47
2018-07-23T02:39:40.098Z,25.48
2018-07-23T02:42:06.865Z,25.48
2018-07-23T02:44:33.548Z,25.48
2018-07-23T02:47:00.178Z,25.49
2018-07-23T02:49:26.812Z,25.50
2018-07-23T02:51:53.458Z,25.39
2018-07-23T02:54:20.128Z,25.39
2018-07-23T02:56:46.805Z,25.41
2018-07-23T02:59:13.455Z,25.42
2018-07-23T03:01:40.144Z,25.44
2018-07-23T03:04:06.772Z,25.40
2018-07-23T03:06:33.456Z,25.56
2018-07-23T03:09:00.096Z,25.34
2018-07-23T03:11:26.731Z,25.28
2018-07-23T03:13:53.353Z,25.16
2018-07-23T03:16:20.005Z,25.13
2018-07-23T03:18:46.641Z,25.10
2018-07-23T03:21:13.312Z,25.20
2018-07-23T03:23:39.945Z,25.21
2018-07-23T03:26:06.610Z,25.22
2018-07-23T03:28:33.255Z,25.25
2018-07-23T03:31:00.015Z,25.18
2018-07-23T03:33:26.667Z,25.18
2018-07-23T03:35:53.305Z,25.15
2018-07-23T03:38:19.998Z,25.05
2018-07-23T03:40:46.631Z,25.04
2018-07-23T03:43:13.265Z,25.19
2018-07-23T03:45:39.975Z,25.21
2018-07-23T03:48:06.662Z,25.24
2018-07-23T03:50:33.294Z,25.19
2018-07-23T03:52:59.933Z,25.18
2018-07-23T03:55:26.580Z,25.28
2018-07-23T03:57:53.231Z,25.33
2018-07-23T04:00:19.882Z,25.37
2018-07-23T04:02:46.552Z,25.24
2018-07-23T04:05:13.232Z,25.33
2018-07-23T04:07:39.870Z,25.35
2018-07-23T04:10:06.554Z,25.39
2018-07-23T04:12:33.169Z,25.46
2018-07-23T04:14:59.777Z,25.55
2018-07-23T04:17:26.448Z,25.65
2018-07-23T04:19:53.084Z,25.63
2018-07-23T04:22:19.772Z,25.68
2018-07-23T04:24:46.399Z,25.74
2018-07-23T04:27:13.099Z,25.61
2018-07-23T04:29:39.744Z,25.45
2018-07-23T04:32:06.378Z,25.46
2018-07-23T04:34:33.059Z,25.64
2018-07-23T04:36:59.726Z,25.70
2018-07-23T04:39:26.357Z,25.74
2018-07-23T04:41:53.047Z,25.68
2018-07-23T04:44:19.643Z,25.64
2018-07-23T04:46:46.283Z,25.67
2018-07-23T04:49:12.977Z,25.67
2018-07-23T04:51:39.597Z,25.63
2018-07-23T04:54:06.230Z,25.67
2018-07-23T04:56:32.903Z,25.64
2018-07-23T04:58:59.543Z,25.61
2018-07-23T05:01:26.149Z,25.63
2018-07-23T05:03:52.775Z,25.61
2018-07-23T05:06:19.411Z,25.61
2018-07-23T05:08:46.121Z,25.67
2018-07-23T05:11:12.728Z,25.86
2018-07-23T05:13:39.370Z,25.99
2018-07-23T05:16:06.132Z,26.08
2018-07-23T05:18:32.728Z,26.19
2018-07-23T05:20:59.364Z,26.34
2018-07-23T05:23:26.012Z,26.20
2018-07-23T05:25:52.652Z,26.29
2018-07-23T05:28:19.355Z,26.36
2018-07-23T05:30:46.078Z,26.43
2018-07-23T05:33:12.681Z,26.58
2018-07-23T05:35:39.356Z,26.65
2018-07-23T05:38:05.970Z,26.71
2018-07-23T05:40:32.642Z,26.75
2018-07-23T05:42:59.303Z,26.61
2018-07-23T05:45:25.954Z,26.58
2018-07-23T05:47:52.655Z,26.50
2018-07-23T05:50:19.336Z,26.43
2018-07-23T05:52:46.029Z,26.46
2018-07-23T05:55:12.669Z,26.42
2018-07-23T05:57:39.404Z,26.43
2018-07-23T06:00:05.981Z,26.46
2018-07-23T06:02:32.662Z,26.54
2018-07-23T06:04:59.299Z,26.63
2018-07-23T06:07:25.960Z,26.57
2018-07-23T06:09:52.716Z,26.64
2018-07-23T06:12:19.293Z,26.63
2018-07-23T06:14:46.073Z,26.65
2018-07-23T06:17:12.777Z,26.68
2018-07-23T06:19:39.450Z,26.64
2018-07-23T06:22:06.082Z,26.57
2018-07-23T06:24:32.731Z,26.68
2018-07-23T06:26:59.497Z,26.73
2018-07-23T06:29:26.137Z,26.78
2018-07-23T06:31:52.805Z,26.66
2018-07-23T06:34:19.447Z,26.61
2018-07-23T06:36:46.150Z,26.68
2018-07-23T06:39:12.786Z,26.65
2018-07-23T06:41:39.434Z,26.65
2018-07-23T06:44:06.102Z,26.57
2018-07-23T06:46:32.795Z,26.71
2018-07-23T06:48:59.428Z,26.68
2018-07-23T06:51:26.143Z,26.56
2018-07-23T06:53:52.745Z,26.48
2018-07-23T06:56:19.477Z,26.34
2018-07-23T06:58:46.101Z,26.38
2018-07-23T07:01:12.746Z,26.40
2018-07-23T07:03:39.386Z,26.36
2018-07-23T07:06:06.040Z,26.30
2018-07-23T07:08:32.691Z,26.40
2018-07-23T07:10:59.390Z,26.51
2018-07-23T07:13:26.027Z,26.62
2018-07-23T07:15:52.645Z,26.62
2018-07-23T07:18:19.329Z,26.70
2018-07-23T07:20:45.992Z,26.65
2018-07-23T07:23:12.628Z,26.69
2018-07-23T07:25:39.281Z,26.69
2018-07-23T07:28:05.910Z,26.67
2018-07-23T07:30:33.762Z,26.72
2018-07-23T07:33:00.493Z,26.68
2018-07-23T07:35:27.128Z,26.75
2018-07-23T07:37:53.821Z,26.80
2018-07-23T07:40:20.453Z,26.75
2018-07-23T07:42:47.119Z,26.78
2018-07-23T07:45:13.735Z,26.86
2018-07-23T07:47:40.399Z,26.83
2018-07-23T07:50:07.057Z,26.84
2018-07-23T07:52:33.686Z,26.78
2018-07-23T07:55:00.359Z,26.78
2018-07-23T07:57:27.034Z,26.82
2018-07-23T07:59:53.712Z,26.71
2018-07-23T08:02:20.379Z,26.73
2018-07-23T08:04:47.062Z,26.67
2018-07-23T08:07:14.068Z,26.73
2018-07-23T08:09:40.661Z,26.71
2018-07-23T08:12:07.302Z,26.67
2018-07-23T08:14:33.980Z,26.69
2018-07-23T08:17:00.619Z,26.64
2018-07-23T08:19:27.300Z,26.58
2018-07-23T08:21:53.954Z,26.66
2018-07-23T08:24:20.636Z,26.61
2018-07-23T08:26:47.277Z,26.66
2018-07-23T08:29:14.079Z,26.58
2018-07-23T08:31:40.838Z,26.58
2018-07-23T08:34:07.428Z,26.59
2018-07-23T08:36:34.155Z,26.58
2018-07-23T08:39:00.756Z,26.44
2018-07-23T08:41:27.450Z,26.44
2018-07-23T08:43:54.202Z,26.39
2018-07-23T08:46:20.839Z,26.52
2018-07-23T08:48:47.525Z,26.46
2018-07-23T08:51:14.156Z,26.41
2018-07-23T08:53:40.823Z,26.40
2018-07-23T08:56:07.527Z,26.32
2018-07-23T08:58:34.135Z,26.28
2018-07-23T09:01:00.813Z,26.27
2018-07-23T09:03:27.489Z,26.26
2018-07-23T09:05:54.133Z,26.30
2018-07-23T09:08:20.857Z,26.11
2018-07-23T09:10:47.445Z,26.08
2018-07-23T09:13:14.089Z,26.05
2018-07-23T09:15:40.735Z,26.13
2018-07-23T09:18:07.367Z,26.35
2018-07-23T09:20:34.011Z,26.41
2018-07-23T09:23:00.656Z,26.34
2018-07-23T09:25:27.285Z,26.43
2018-07-23T09:27:53.933Z,26.45
2018-07-23T09:30:20.607Z,26.54
2018-07-23T09:32:47.206Z,26.55
2018-07-23T09:35:13.854Z,26.55
2018-07-23T09:37:40.519Z,26.51
2018-07-23T09:40:07.152Z,26.59
2018-07-23T09:42:33.791Z,26.68
2018-07-23T09:45:00.430Z,26.67
2018-07-23T09:47:27.073Z,26.73
2018-07-23T09:49:53.713Z,26.63
2018-07-23T09:52:20.385Z,26.70
2018-07-23T09:54:47.034Z,26.70
2018-07-23T09:57:13.668Z,26.75
2018-07-23T09:59:40.361Z,26.77
2018-07-23T10:02:06.992Z,26.77
2018-07-23T10:04:33.635Z,26.87
2018-07-23T10:07:00.274Z,26.92
2018-07-23T10:09:26.917Z,26.45
2018-07-23T10:11:53.567Z,26.34
2018-07-23T10:14:20.210Z,26.21
2018-07-23T10:16:46.861Z,26.12
2018-07-23T10:19:13.535Z,26.37
2018-07-23T10:21:40.193Z,26.65
2018-07-23T10:24:06.864Z,26.50
2018-07-23T10:26:33.697Z,26.51
2018-07-23T10:29:00.441Z,26.58
2018-07-23T10:31:27.091Z,26.63
2018-07-23T10:33:53.787Z,26.69
2018-07-23T10:36:20.423Z,26.65
2018-07-23T10:38:47.075Z,26.62
2018-07-23T10:41:13.737Z,26.67
2018-07-23T10:43:40.372Z,26.55
2018-07-23T10:46:07.002Z,26.23
2018-07-23T10:48:33.667Z,26.36
2018-07-23T10:51:00.387Z,26.47
2018-07-23T10:53:26.987Z,26.53
2018-07-23T10:55:53.612Z,26.56
2018-07-23T10:58:20.261Z,26.52
2018-07-23T11:00:47.212Z,26.58
2018-07-23T11:03:13.851Z,26.49
2018-07-23T11:05:40.529Z,26.42
2018-07-23T11:08:07.228Z,26.55
2018-07-23T11:10:33.865Z,26.58
2018-07-23T11:13:00.532Z,26.49
2018-07-23T11:15:27.167Z,26.51
2018-07-23T11:17:53.828Z,26.49
2018-07-23T11:20:20.510Z,26.47
2018-07-23T11:22:47.168Z,26.49
2018-07-23T11:25:38.703Z,26.53
2018-07-23T11:27:40.470Z,26.53
2018-07-23T11:30:07.151Z,26.77
2018-07-23T11:32:33.833Z,26.65
2018-07-23T11:35:00.480Z,26.61
2018-07-23T11:37:27.178Z,26.51
2018-07-23T11:39:53.826Z,26.74
2018-07-23T11:42:20.465Z,26.78
2018-07-23T11:44:47.132Z,26.67
2018-07-23T11:47:13.817Z,26.66
2018-07-23T11:49:40.471Z,26.60
2018-07-23T11:52:14.355Z,26.57
2018-07-23T11:54:33.784Z,26.50
2018-07-23T11:57:00.492Z,26.66
2018-07-23T11:59:27.065Z,26.62
2018-07-23T12:01:53.779Z,26.49
2018-07-23T12:04:20.467Z,26.61
2018-07-23T12:06:47.022Z,26.65
2018-07-23T12:09:13.724Z,26.60
2018-07-23T12:11:40.367Z,26.62
2018-07-23T12:14:07.020Z,26.59
2018-07-23T12:16:33.670Z,26.59
2018-07-23T12:19:00.340Z,26.74
2018-07-23T12:21:26.980Z,26.61
2018-07-23T12:23:53.641Z,26.54
2018-07-23T12:26:20.284Z,26.55
2018-07-23T12:28:46.930Z,26.45
2018-07-23T12:31:13.566Z,26.60
2018-07-23T12:33:40.215Z,26.51
2018-07-23T12:36:06.863Z,26.43
2018-07-23T12:38:33.507Z,26.50
2018-07-23T12:41:00.173Z,26.53
2018-07-23T12:43:26.815Z,26.56
2018-07-23T12:45:53.463Z,26.63
2018-07-23T12:48:20.092Z,26.56
2018-07-23T12:50:46.737Z,26.56
2018-07-23T12:53:13.392Z,26.65
2018-07-23T12:55:40.035Z,26.61
2018-07-23T12:58:06.677Z,26.60
2018-07-23T13:00:33.312Z,26.72
2018-07-23T13:02:59.959Z,26.70
2018-07-23T13:05:26.614Z,26.69
2018-07-23T13:07:53.247Z,26.70
2018-07-23T13:10:19.927Z,26.69
2018-07-23T13:12:46.531Z,26.68
2018-07-23T13:15:13.201Z,26.67
2018-07-23T13:17:39.848Z,26.70
2018-07-23T13:20:06.485Z,26.68
2018-07-23T13:22:33.124Z,26.71
2018-07-23T13:24:59.768Z,26.73
2018-07-23T13:27:26.434Z,26.90
2018-07-23T13:29:53.073Z,26.77
2018-07-23T13:32:19.776Z,26.76
2018-07-23T13:34:46.449Z,26.84
2018-07-23T13:37:13.190Z,26.76
2018-07-23T13:39:39.827Z,26.69
2018-07-23T13:42:06.469Z,26.65
2018-07-23T13:44:33.205Z,26.63
2018-07-23T13:46:59.899Z,26.61
2018-07-23T13:49:26.545Z,26.57
2018-07-23T13:51:53.231Z,26.55
2018-07-23T13:54:19.925Z,26.54
2018-07-23T13:56:46.534Z,26.55
2018-07-23T13:59:13.165Z,26.53
2018-07-23T14:01:39.844Z,26.46
2018-07-23T14:04:06.448Z,26.54
2018-07-23T14:06:33.191Z,26.61
2018-07-23T14:08:59.795Z,26.49
2018-07-23T14:11:26.434Z,26.45
2018-07-23T14:13:53.113Z,26.43
2018-07-23T14:16:19.751Z,26.63
2018-07-23T14:18:46.414Z,26.45
2018-07-23T14:21:13.075Z,26.59
2018-07-23T14:23:39.755Z,26.43
2018-07-23T14:26:06.473Z,26.39
2018-07-23T14:28:33.143Z,26.43
2018-07-23T14:30:59.749Z,26.48
2018-07-23T14:33:26.388Z,26.41
2018-07-23T14:35:53.026Z,26.37
2018-07-23T14:38:19.683Z,26.27
2018-07-23T14:40:46.344Z,26.29
2018-07-23T14:43:12.996Z,26.31
2018-07-23T14:45:39.652Z,26.17
2018-07-23T14:48:06.294Z,26.24
2018-07-23T14:50:32.923Z,26.23
2018-07-23T14:52:59.567Z,26.28
2018-07-23T14:55:26.237Z,26.25
2018-07-23T14:57:53.027Z,26.22
2018-07-23T15:00:19.662Z,26.37
2018-07-23T15:02:46.297Z,26.45
2018-07-23T15:05:12.946Z,26.36
2018-07-23T15:07:39.582Z,26.29
2018-07-23T15:10:06.214Z,26.45
2018-07-23T15:12:32.874Z,26.50
2018-07-23T15:14:59.558Z,26.39
2018-07-23T15:17:26.231Z,26.33
2018-07-23T15:19:52.832Z,26.22
2018-07-23T15:22:19.584Z,26.29
2018-07-23T15:24:46.181Z,26.36
2018-07-23T15:27:12.819Z,26.36
2018-07-23T15:29:39.451Z,26.42
2018-07-23T15:32:06.089Z,26.47
2018-07-23T15:34:32.739Z,26.34
2018-07-23T15:36:59.407Z,26.18
2018-07-23T15:39:26.058Z,26.24
2018-07-23T15:41:52.694Z,26.24
2018-07-23T15:44:19.426Z,26.28
2018-07-23T15:46:45.966Z,26.34
2018-07-23T15:49:12.605Z,26.36
2018-07-23T15:51:39.269Z,26.35
2018-07-23T15:54:05.895Z,26.40
2018-07-23T15:56:32.528Z,26.47
2018-07-23T15:58:59.203Z,26.53
2018-07-23T16:01:26.225Z,26.59
2018-07-23T16:03:52.874Z,26.48
2018-07-23T16:06:19.548Z,26.45
2018-07-23T16:08:46.194Z,26.42
2018-07-23T16:11:12.797Z,26.17
2018-07-23T16:13:39.429Z,26.12
2018-07-23T16:16:06.067Z,26.12
2018-07-23T16:18:32.706Z,26.10
2018-07-23T16:20:59.339Z,26.16
2018-07-23T16:23:25.982Z,26.23
2018-07-23T16:25:53.913Z,26.27
2018-07-23T16:28:19.259Z,26.26
2018-07-23T16:30:45.915Z,26.24
2018-07-23T16:33:12.568Z,26.24
2018-07-23T16:35:39.199Z,26.28
2018-07-23T16:38:05.860Z,26.29
2018-07-23T16:40:32.472Z,26.31
2018-07-23T16:42:59.125Z,26.31
2018-07-23T16:45:25.745Z,26.30
2018-07-23T16:47:52.453Z,26.30
2018-07-23T16:50:19.066Z,26.31
2018-07-23T16:52:45.692Z,26.31
2018-07-23T16:55:12.373Z,26.29
2018-07-23T16:57:38.998Z,26.21
2018-07-23T17:00:05.639Z,26.22
2018-07-23T17:02:32.277Z,26.29
2018-07-23T17:04:58.941Z,26.30
2018-07-23T17:07:25.619Z,26.29
2018-07-23T17:09:52.262Z,26.31
2018-07-23T17:12:18.931Z,26.32
2018-07-23T17:14:45.567Z,26.31
2018-07-23T17:17:12.200Z,26.30
2018-07-23T17:19:38.880Z,26.28
2018-07-23T17:22:05.517Z,26.26
2018-07-23T17:24:32.143Z,26.23
2018-07-23T17:26:58.793Z,26.23
2018-07-23T17:29:25.468Z,26.36
2018-07-23T17:31:52.100Z,26.36
2018-07-23T17:34:18.736Z,26.29
2018-07-23T17:36:45.361Z,26.23
2018-07-23T17:39:12.051Z,26.21
2018-07-23T17:41:38.666Z,26.20
2018-07-23T17:44:05.288Z,26.20
2018-07-23T17:46:31.931Z,26.20
2018-07-23T17:48:58.565Z,26.19
2018-07-23T17:51:25.218Z,26.21
2018-07-23T17:53:51.851Z,26.20
2018-07-23T17:56:18.538Z,26.18
2018-07-23T17:58:45.145Z,26.15
2018-07-23T18:01:11.782Z,26.16
2018-07-23T18:03:38.429Z,26.16
2018-07-23T18:06:05.063Z,26.13
2018-07-23T18:08:31.696Z,26.15
2018-07-23T18:10:58.321Z,26.12
2018-07-23T18:13:25.022Z,26.12
2018-07-23T18:15:51.666Z,26.12
2018-07-23T18:18:18.284Z,26.11
2018-07-23T18:20:44.955Z,26.08
2018-07-23T18:23:11.581Z,26.12
2018-07-23T18:25:38.208Z,26.11
2018-07-23T18:28:04.839Z,26.10
2018-07-23T18:30:31.476Z,26.08
2018-07-23T18:32:58.173Z,26.08
2018-07-23T18:35:24.805Z,26.10
2018-07-23T18:37:51.473Z,26.06
2018-07-23T18:40:18.076Z,26.08
2018-07-23T18:42:44.773Z,26.09
2018-07-23T18:45:11.349Z,26.05
2018-07-23T18:47:38.039Z,26.03
2018-07-23T18:50:04.652Z,26.02
2018-07-23T18:52:31.307Z,26.02
2018-07-23T18:54:57.981Z,26.04
2018-07-23T18:57:24.582Z,26.04
2018-07-23T18:59:51.294Z,26.01
2018-07-23T19:02:17.882Z,25.99
2018-07-23T19:04:44.508Z,26.00
2018-07-23T19:07:11.143Z,25.99
2018-07-23T19:09:37.779Z,25.99
2018-07-23T19:12:04.445Z,25.98
2018-07-23T19:14:31.075Z,25.97
2018-07-23T19:16:57.707Z,25.96
2018-07-23T19:19:24.368Z,25.97
2018-07-23T19:21:51.034Z,25.95
2018-07-23T19:24:17.682Z,25.95
2018-07-23T19:26:44.383Z,25.95
2018-07-23T19:29:10.983Z,25.95
2018-07-23T19:31:37.615Z,25.94
2018-07-23T19:34:04.248Z,25.92
2018-07-23T19:36:30.950Z,25.92
2018-07-23T19:38:57.597Z,25.91
2018-07-23T19:41:24.296Z,25.90
2018-07-23T19:43:50.893Z,25.89
2018-07-23T19:46:17.552Z,25.87
2018-07-23T19:48:44.192Z,25.86
2018-07-23T19:51:10.827Z,25.89
2018-07-23T19:53:37.468Z,25.89
2018-07-23T19:56:04.157Z,25.86
2018-07-23T19:58:30.825Z,25.86
2018-07-23T20:00:57.465Z,25.83
2018-07-23T20:03:24.143Z,25.84
2018-07-23T20:05:50.779Z,25.82
2018-07-23T20:08:18.094Z,25.83
2018-07-23T20:10:44.732Z,25.81
2018-07-23T20:13:11.366Z,25.80
2018-07-23T20:15:38.009Z,25.80
2018-07-23T20:18:04.685Z,25.78
2018-07-23T20:20:31.325Z,25.76
2018-07-23T20:22:57.960Z,25.77
2018-07-23T20:25:24.596Z,25.79
2018-07-23T20:27:51.235Z,25.74
2018-07-23T20:30:17.878Z,25.77
2018-07-23T20:32:44.516Z,25.75
2018-07-23T20:35:11.252Z,25.78
2018-07-23T20:37:37.839Z,25.77
2018-07-23T20:40:04.512Z,25.74
2018-07-23T20:42:31.191Z,25.80
2018-07-23T20:44:57.829Z,25.74
2018-07-23T20:47:24.472Z,25.73
2018-07-23T20:49:51.133Z,25.74
2018-07-23T20:52:17.832Z,25.69
2018-07-23T20:54:44.460Z,25.73
2018-07-23T20:57:11.093Z,25.74
2018-07-23T20:59:37.889Z,25.72
2018-07-23T21:02:04.526Z,25.69
2018-07-23T21:04:31.161Z,25.72
2018-07-23T21:06:57.844Z,25.69
2018-07-23T21:09:24.519Z,25.67
2018-07-23T21:11:51.148Z,25.71
2018-07-23T21:14:17.792Z,25.69
2018-07-23T21:16:44.429Z,25.69
2018-07-23T21:19:11.065Z,25.66
2018-07-23T21:21:37.704Z,25.63
2018-07-23T21:24:04.342Z,25.67
2018-07-23T21:26:30.979Z,25.64
2018-07-23T21:28:57.620Z,25.62
2018-07-23T21:31:24.243Z,25.61
2018-07-23T21:33:50.892Z,25.61
2018-07-23T21:36:17.565Z,25.66
2018-07-23T21:38:44.211Z,25.61
2018-07-23T21:41:10.891Z,25.63
2018-07-23T21:43:37.514Z,25.44
2018-07-23T21:46:04.152Z,25.59
2018-07-23T21:48:30.821Z,25.60
2018-07-23T21:50:57.460Z,25.59
2018-07-23T21:53:24.094Z,25.58
2018-07-23T21:55:50.731Z,25.55
2018-07-23T21:58:17.372Z,25.55
2018-07-23T22:00:44.120Z,25.53
2018-07-23T22:03:10.645Z,25.52
2018-07-23T22:05:37.315Z,25.54
2018-07-23T22:08:03.994Z,25.54
2018-07-23T22:10:30.660Z,25.51
2018-07-23T22:12:57.345Z,25.53
2018-07-23T22:15:23.890Z,25.51
2018-07-23T22:17:50.532Z,25.51
2018-07-23T22:20:17.210Z,25.48
2018-07-23T22:22:43.847Z,25.50
2018-07-23T22:25:10.513Z,25.48
2018-07-23T22:27:37.191Z,25.50
2018-07-23T22:30:03.833Z,25.46
2018-07-23T22:32:30.518Z,25.44
2018-07-23T22:34:57.140Z,25.44
2018-07-23T22:37:23.770Z,25.43
2018-07-23T22:39:50.406Z,25.43
2018-07-23T22:42:17.051Z,25.41
2018-07-23T22:44:43.687Z,25.43
2018-07-23T22:47:10.324Z,25.41
2018-07-23T22:49:37.005Z,25.42
2018-07-23T22:52:03.645Z,25.41
2018-07-23T22:54:30.287Z,25.40
2018-07-23T22:56:56.946Z,25.42
2018-07-23T22:59:23.582Z,25.41
2018-07-23T23:01:50.229Z,25.40
2018-07-23T23:04:16.857Z,25.39
2018-07-23T23:06:43.494Z,25.41
2018-07-23T23:09:10.132Z,25.37
2018-07-23T23:11:36.805Z,25.37
2018-07-23T23:14:03.441Z,25.38
2018-07-23T23:16:30.076Z,25.36
2018-07-23T23:18:56.751Z,25.36
2018-07-23T23:21:23.396Z,25.36
2018-07-23T23:23:50.068Z,25.34
2018-07-23T23:26:16.739Z,25.34
2018-07-23T23:28:43.445Z,25.35
2018-07-23T23:31:10.041Z,25.29
2018-07-23T23:33:36.715Z,25.32
2018-07-23T23:36:03.352Z,25.31
2018-07-23T23:38:29.989Z,25.32
2018-07-23T23:40:56.626Z,25.30
2018-07-23T23:43:23.303Z,25.31
2018-07-23T23:45:49.931Z,25.30
2018-07-23T23:48:16.621Z,25.30
2018-07-23T23:50:43.308Z,25.31
2018-07-23T23:53:09.945Z,25.30
2018-07-23T23:55:36.627Z,25.31
2018-07-23T23:58:03.265Z,25.27
